Time;durP1;ratioP1;P1;durP2;ratioP2;P2;SDS_P1;SDS_P2;PMS_P1;PMS_P2;Temp;Humidity;BMP_temperature;BMP_pressure;BME280_temperature;BME280_humidity;BME280_pressure;Samples;Min_cycle;Max_cycle;Signal;HPM_P1;HPM_P2
2023/05/04 00:00:51;;;;;;;6.75;1.90;;;;;;;19.27;41.89;98803.94;5092137;28;20038;-47
2023/05/04 00:03:17;;;;;;;6.72;1.77;;;;;;;19.16;42.05;98801.19;5092464;28;20026;-46
2023/05/04 00:05:43;;;;;;;3.80;1.48;;;;;;;19.03;42.08;98803.47;5090802;28;20393;-47
2023/05/04 00:08:08;;;;;;;3.38;1.40;;;;;;;18.90;42.38;98802.03;5090798;28;20032;-46
2023/05/04 00:10:34;;;;;;;5.68;1.83;;;;;;;18.81;42.92;98795.53;5090775;28;20059;-46
2023/05/04 00:13:00;;;;;;;7.80;1.80;;;;;;;18.74;42.50;98793.06;5090431;28;20394;-47
2023/05/04 00:15:26;;;;;;;2.72;1.75;;;;;;;18.63;42.97;98794.78;5090979;28;20060;-47
2023/05/04 00:17:53;;;;;;;7.80;1.70;;;;;;;18.60;43.39;98797.97;5091929;28;20020;-46
2023/05/04 00:20:19;;;;;;;3.25;1.30;;;;;;;18.58;42.60;98791.31;5091978;28;20020;-47
2023/05/04 00:22:44;;;;;;;10.75;1.75;;;;;;;18.48;43.03;98794.66;5091897;28;20040;-47
2023/05/04 00:25:10;;;;;;;5.95;1.48;;;;;;;18.55;42.97;98787.28;5090584;28;20273;-47
2023/05/04 00:27:36;;;;;;;14.63;6.55;;;;;;;18.56;42.69;98792.34;5091872;28;20110;-47
2023/05/04 00:30:01;;;;;;;6.88;3.95;;;;;;;18.63;42.87;98791.34;5091687;28;20077;-46
2023/05/04 00:32:27;;;;;;;7.22;2.30;;;;;;;18.68;42.75;98778.13;5090477;28;20024;-47
2023/05/04 00:34:53;;;;;;;5.95;1.80;;;;;;;18.83;42.31;98788.13;5091817;28;20024;-47
2023/05/04 00:37:18;;;;;;;3.70;1.80;;;;;;;18.81;42.53;98784.91;5090491;28;20028;-47
2023/05/04 00:39:44;;;;;;;7.18;2.03;;;;;;;18.71;42.39;98788.22;5091775;28;20403;-47
2023/05/04 00:42:10;;;;;;;7.38;2.03;;;;;;;18.76;42.33;98780.31;5091985;28;20024;-47
2023/05/04 00:44:40;;;;;;;5.72;1.50;;;;;;;18.81;41.74;98775.06;5091698;28;20024;-47
2023/05/04 00:47:06;;;;;;;9.60;2.08;;;;;;;18.68;42.04;98778.13;5091997;28;20366;-47
2023/05/04 00:49:32;;;;;;;3.40;1.35;;;;;;;18.55;41.93;98780.13;5091729;28;20515;-47
2023/05/04 00:52:01;;;;;;;7.45;1.88;;;;;;;18.43;43.37;98783.94;5091565;28;20056;-47
2023/05/04 00:54:27;;;;;;;1.67;1.38;;;;;;;18.41;42.88;98786.88;5090332;28;20028;-46
2023/05/04 00:56:53;;;;;;;2.38;1.27;;;;;;;18.48;43.15;98773.41;5091620;28;20031;-47
2023/05/04 00:59:19;;;;;;;10.73;2.05;;;;;;;18.34;43.81;98781.75;5090300;28;20503;-46
2023/05/04 01:01:44;;;;;;;2.65;1.25;;;;;;;18.28;43.06;98787.25;5090210;28;20379;-47
2023/05/04 01:04:11;;;;;;;9.13;1.75;;;;;;;18.14;43.06;98784.97;5091594;28;20064;-47
2023/05/04 01:06:56;;;;;;;5.88;2.30;;;;;;;18.10;43.28;98781.19;5091573;28;20021;-47
2023/05/04 01:09:46;;;;;;;4.70;2.38;;;;;;;17.98;43.28;98788.47;5075233;28;20096;-47
2023/05/04 01:12:20;;;;;;;5.65;2.72;;;;;;;17.92;43.86;98800.09;5090247;28;20089;-46
2023/05/04 01:14:46;;;;;;;3.20;1.53;;;;;;;17.89;44.04;98795.28;5090193;28;20046;-46
2023/05/04 01:17:12;;;;;;;4.78;1.67;;;;;;;17.84;44.12;98793.34;5090116;28;20051;-46
2023/05/04 01:19:38;;;;;;;4.53;1.50;;;;;;;17.90;43.86;98802.19;5091396;28;20036;-46
2023/05/04 01:22:04;;;;;;;3.20;1.73;;;;;;;17.89;43.67;98805.91;5090082;28;20040;-47
2023/05/04 01:24:30;;;;;;;5.90;1.98;;;;;;;17.93;44.18;98799.84;5090575;28;20032;-46
2023/05/04 01:27:07;;;;;;;3.20;1.52;;;;;;;17.91;43.88;98795.84;5095092;28;20380;-47
2023/05/04 01:29:51;;;;;;;3.20;1.48;;;;;;;17.85;43.85;98810.88;5093541;28;20105;-47
2023/05/04 01:32:18;;;;;;;3.83;1.42;;;;;;;17.73;44.17;98803.00;5094907;28;20443;-46
2023/05/04 01:34:44;;;;;;;3.03;1.45;;;;;;;17.67;44.29;98819.88;5093639;28;20024;-47
2023/05/04 01:37:10;;;;;;;2.63;1.35;;;;;;;17.56;44.48;98812.81;5094965;28;20042;-46
2023/05/04 01:39:36;;;;;;;2.90;1.27;;;;;;;17.47;44.78;98814.28;5076652;28;20110;-47
2023/05/04 01:42:01;;;;;;;4.18;1.42;;;;;;;17.41;45.12;98817.91;5094773;28;20028;-47
2023/05/04 01:44:27;;;;;;;4.85;2.10;;;;;;;17.37;45.42;98823.69;5094810;28;20024;-46
2023/05/04 01:46:53;;;;;;;2.22;1.50;;;;;;;17.40;45.13;98830.34;5093391;28;20077;-47
2023/05/04 01:49:18;;;;;;;2.95;1.50;;;;;;;17.56;45.21;98826.88;5076568;28;20118;-47
2023/05/04 01:51:45;;;;;;;4.82;1.40;;;;;;;17.69;44.78;98828.41;5094561;28;20020;-47
2023/05/04 01:54:11;;;;;;;4.88;1.80;;;;;;;17.76;44.80;98829.03;5094510;28;20039;-47
2023/05/04 01:56:37;;;;;;;4.20;1.60;;;;;;;17.81;44.53;98824.84;5094465;28;20525;-46
2023/05/04 01:59:04;;;;;;;4.45;1.58;;;;;;;17.85;44.85;98836.59;5094540;28;20144;-46
2023/05/04 02:01:29;;;;;;;4.25;1.58;;;;;;;17.88;44.60;98838.78;5093096;28;20114;-47
2023/05/04 02:03:55;;;;;;;6.32;1.70;;;;;;;17.87;44.72;98832.69;5093077;28;20070;-47
2023/05/04 02:06:24;;;;;;;4.35;1.65;;;;;;;17.90;44.93;98828.72;5093077;28;20024;-47
2023/05/04 02:08:50;;;;;;;7.18;1.23;;;;;;;17.91;44.74;98836.47;5092993;28;20020;-47
2023/05/04 02:11:16;;;;;;;5.03;2.10;;;;;;;17.86;45.25;98840.88;5094075;28;20024;-47
2023/05/04 02:13:42;;;;;;;4.00;1.10;;;;;;;17.96;44.82;98833.06;5092846;28;20119;-46
2023/05/04 02:16:07;;;;;;;4.55;1.80;;;;;;;17.98;44.79;98833.63;5092870;28;20031;-47
2023/05/04 02:18:33;;;;;;;5.68;1.90;;;;;;;17.99;44.73;98834.41;5092763;28;20025;-47
2023/05/04 02:20:59;;;;;;;4.55;1.52;;;;;;;17.95;45.00;98839.44;5094086;28;20024;-47
2023/05/04 02:23:24;;;;;;;2.17;1.38;;;;;;;17.87;45.17;98835.34;5094053;28;20043;-47
2023/05/04 02:25:51;;;;;;;4.47;1.73;;;;;;;17.88;45.60;98836.13;5093989;28;20056;-47
2023/05/04 02:28:17;;;;;;;5.55;1.60;;;;;;;17.94;45.27;98835.97;5093683;28;20020;-49
2023/05/04 02:30:43;;;;;;;11.57;2.05;;;;;;;18.02;45.18;98832.09;5092586;28;20035;-47
2023/05/04 02:33:08;;;;;;;4.00;1.67;;;;;;;18.05;45.04;98828.94;5093682;28;20028;-47
2023/05/04 02:35:34;;;;;;;6.45;2.13;;;;;;;18.07;45.20;98832.16;5092405;28;20024;-47
2023/05/04 02:38:00;;;;;;;6.20;1.70;;;;;;;18.13;45.14;98830.38;5093838;28;20028;-47
2023/05/04 02:40:25;;;;;;;7.85;1.92;;;;;;;18.10;45.43;98833.50;5093723;28;20024;-47
2023/05/04 02:42:52;;;;;;;8.35;1.98;;;;;;;18.14;44.95;98829.31;5092324;28;20123;-47
2023/05/04 02:45:18;;;;;;;10.63;2.03;;;;;;;18.08;45.23;98825.00;5092321;28;20409;-47
2023/05/04 02:47:44;;;;;;;5.57;1.60;;;;;;;18.13;45.07;98833.03;5092208;28;20089;-47
2023/05/04 02:50:10;;;;;;;3.55;1.55;;;;;;;18.21;45.23;98826.47;5093572;28;20024;-47
2023/05/04 02:52:35;;;;;;;6.35;1.70;;;;;;;18.34;44.54;98828.78;5092074;28;20036;-47
2023/05/04 02:55:04;;;;;;;7.28;2.00;;;;;;;18.51;44.07;98818.88;5092072;28;20071;-47
2023/05/04 02:57:30;;;;;;;3.35;1.25;;;;;;;18.52;43.69;98830.31;5092034;28;20089;-47
2023/05/04 02:59:56;;;;;;;2.58;1.48;;;;;;;18.39;44.02;98836.00;5092101;28;20024;-46
2023/05/04 03:02:21;;;;;;;8.13;1.80;;;;;;;18.33;44.25;98832.47;5093268;28;20455;-47
2023/05/04 03:04:47;;;;;;;5.63;1.75;;;;;;;18.37;44.61;98822.94;5093463;28;20024;-47
2023/05/04 03:07:12;;;;;;;4.25;1.80;;;;;;;18.50;44.12;98822.56;5091889;28;20024;-47
2023/05/04 03:09:38;;;;;;;7.45;2.17;;;;;;;18.63;43.76;98818.72;5074915;28;20096;-46
2023/05/04 03:12:04;;;;;;;5.43;2.45;;;;;;;18.59;43.64;98812.28;5091729;28;20059;-46
2023/05/04 03:14:30;;;;;;;9.32;2.40;;;;;;;18.52;43.65;98811.72;5093057;28;20504;-47
2023/05/04 03:16:56;;;;;;;7.35;1.80;;;;;;;18.47;43.64;98811.63;5091665;28;20032;-47
2023/05/04 03:19:22;;;;;;;3.78;2.05;;;;;;;18.39;44.13;98814.72;5091880;28;20112;-47
2023/05/04 03:21:48;;;;;;;8.95;2.40;;;;;;;18.48;44.04;98807.94;5091608;28;20066;-47
2023/05/04 03:24:16;;;;;;;5.05;1.98;;;;;;;18.52;43.68;98809.06;5091359;28;20035;-47
2023/05/04 03:26:42;;;;;;;11.40;2.38;;;;;;;18.48;43.87;98810.59;5092950;28;20031;-47
2023/05/04 03:29:07;;;;;;;5.30;1.95;;;;;;;18.52;43.80;98804.53;5091279;28;20127;-47
2023/05/04 03:31:35;;;;;;;9.30;2.10;;;;;;;18.48;43.61;98794.66;5091692;28;20040;-47
2023/05/04 03:34:01;;;;;;;7.53;2.03;;;;;;;18.40;44.25;98814.50;5091422;28;20520;-47
2023/05/04 03:36:26;;;;;;;4.15;1.98;;;;;;;18.49;44.14;98809.53;5092970;28;20398;-46
2023/05/04 03:38:52;;;;;;;8.05;2.58;;;;;;;18.41;44.27;98809.97;5092687;28;20059;-46
2023/05/04 03:41:17;;;;;;;3.72;1.58;;;;;;;18.31;44.21;98808.00;5092619;28;20104;-47
2023/05/04 03:43:43;;;;;;;6.07;2.08;;;;;;;18.13;44.38;98812.59;5092555;28;20012;-47
2023/05/04 03:46:10;;;;;;;5.13;1.60;;;;;;;18.06;44.51;98803.19;5091202;28;20031;-47
2023/05/04 03:48:36;;;;;;;10.05;2.05;;;;;;;18.01;44.58;98809.25;5090615;28;20106;-46
2023/05/04 03:51:02;;;;;;;4.53;1.80;;;;;;;17.95;44.77;98800.41;5091015;28;20103;-47
2023/05/04 03:53:27;;;;;;;10.68;2.10;;;;;;;17.86;44.76;98815.13;5091023;28;20547;-47
2023/05/04 03:55:53;;;;;;;3.85;1.85;;;;;;;17.75;45.33;98808.84;5091018;28;20019;-47
2023/05/04 03:58:19;;;;;;;3.05;1.80;;;;;;;17.61;45.48;98812.91;5092579;28;20043;-47
2023/05/04 04:00:45;;;;;;;6.40;1.85;;;;;;;17.52;45.67;98817.00;5090933;28;20048;-47
2023/05/04 04:03:11;;;;;;;13.63;3.00;;;;;;;17.50;46.07;98813.78;5090917;28;20055;-46
2023/05/04 04:05:36;;;;;;;3.90;1.80;;;;;;;17.65;45.70;98819.34;5090932;28;20054;-47
2023/05/04 04:08:02;;;;;;;5.68;2.97;;;;;;;17.68;45.88;98818.03;5090837;28;20032;-47
2023/05/04 04:10:27;;;;;;;6.90;2.42;;;;;;;17.68;45.61;98818.81;5092075;28;20026;-47
2023/05/04 04:12:53;;;;;;;19.55;2.75;;;;;;;17.68;45.67;98816.19;5092060;28;20103;-47
2023/05/04 04:15:19;;;;;;;24.20;4.25;;;;;;;17.75;45.78;98821.34;5092063;28;20020;-46
2023/05/04 04:17:44;;;;;;;30.42;4.13;;;;;;;17.75;45.87;98819.47;5090706;28;20116;-47
2023/05/04 04:20:11;;;;;;;8.68;2.40;;;;;;;17.89;45.65;98827.13;5092012;28;20024;-47
2023/05/04 04:22:37;;;;;;;8.02;2.05;;;;;;;17.93;45.31;98821.09;5090623;28;20028;-47
2023/05/04 04:25:03;;;;;;;10.48;2.42;;;;;;;17.97;45.45;98821.41;5090573;28;20024;-47
2023/05/04 04:27:29;;;;;;;9.77;2.30;;;;;;;17.95;45.53;98815.53;5091880;28;20385;-47
2023/05/04 04:29:56;;;;;;;12.45;2.47;;;;;;;17.88;45.55;98820.22;5090376;28;20054;-47
2023/05/04 04:32:21;;;;;;;9.52;2.60;;;;;;;17.71;46.00;98830.84;5090456;28;20051;-47
2023/05/04 04:34:48;;;;;;;9.32;1.80;;;;;;;17.63;46.12;98828.59;5090531;28;20020;-47
2023/05/04 04:37:14;;;;;;;10.95;2.58;;;;;;;17.75;46.22;98834.59;5091818;28;20027;-46
2023/05/04 04:39:40;;;;;;;7.47;2.70;;;;;;;17.89;46.11;98835.91;5090474;28;20016;-47
2023/05/04 04:42:06;;;;;;;7.13;2.63;;;;;;;17.96;45.66;98831.19;5091790;28;20030;-46
2023/05/04 04:44:31;;;;;;;13.82;8.05;;;;;;;18.12;45.47;98834.06;5092009;28;20024;-47
2023/05/04 04:46:57;;;;;;;6.07;3.20;;;;;;;18.31;44.99;98838.03;5091678;28;20029;-47
2023/05/04 04:49:26;;;;;;;10.70;2.97;;;;;;;18.51;44.36;98840.16;5090423;28;20016;-47
2023/05/04 04:51:51;;;;;;;6.22;2.20;;;;;;;19.05;43.33;98833.28;5091860;28;20024;-46
2023/05/04 04:54:17;;;;;;;9.38;2.30;;;;;;;19.80;41.84;98830.69;5090331;28;20504;-46
2023/05/04 04:56:44;;;;;;;22.73;2.70;;;;;;;20.55;40.34;98836.66;5091608;28;20063;-46
2023/05/04 04:59:11;;;;;;;8.18;1.95;;;;;;;21.24;39.13;98830.13;5091663;28;20399;-47
2023/05/04 05:01:37;;;;;;;11.95;3.08;;;;;;;21.70;37.62;98832.00;5094271;28;20077;-46
2023/05/04 05:04:04;;;;;;;11.35;2.75;;;;;;;22.19;37.18;98836.66;5095605;28;20047;-47
2023/05/04 05:06:29;;;;;;;10.80;3.25;;;;;;;22.71;36.01;98829.25;5095533;28;20020;-47
2023/05/04 05:08:55;;;;;;;10.65;2.10;;;;;;;23.09;34.95;98824.22;5095520;28;20024;-47
2023/05/04 05:11:21;;;;;;;5.43;2.35;;;;;;;22.90;35.53;98822.19;5094026;28;20485;-47
2023/05/04 05:13:46;;;;;;;14.45;2.90;;;;;;;23.07;35.35;98827.16;5094089;28;20052;-47
2023/05/04 05:16:12;;;;;;;4.47;1.85;;;;;;;23.52;34.62;98829.75;5095304;28;20142;-47
2023/05/04 05:18:38;;;;;;;10.48;2.08;;;;;;;23.78;33.87;98819.63;5093923;28;20028;-47
2023/05/04 05:21:04;;;;;;;4.65;1.88;;;;;;;23.84;33.58;98823.03;5095282;28;20012;-47
2023/05/04 05:23:30;;;;;;;15.05;2.80;;;;;;;23.68;33.79;98820.50;5093881;28;20393;-47
2023/05/04 05:25:55;;;;;;;4.45;1.85;;;;;;;23.65;34.49;98817.59;5093785;28;20020;-47
2023/05/04 05:28:21;;;;;;;5.55;2.25;;;;;;;23.97;34.03;98832.31;5094811;28;20024;-48
2023/05/04 05:30:48;;;;;;;11.68;2.63;;;;;;;24.39;32.94;98834.22;5093801;28;20448;-47
2023/05/04 05:33:14;;;;;;;14.70;2.65;;;;;;;24.86;32.26;98835.22;5093917;28;20516;-47
2023/05/04 05:35:39;;;;;;;4.50;1.98;;;;;;;25.25;31.77;98844.06;5094912;28;20106;-47
2023/05/04 05:38:05;;;;;;;12.30;3.03;;;;;;;24.77;32.40;98838.84;5093605;28;20055;-47
2023/05/04 05:40:31;;;;;;;12.95;2.25;;;;;;;24.32;33.02;98834.56;5094781;28;20059;-47
2023/05/04 05:42:57;;;;;;;21.20;2.78;;;;;;;24.49;32.93;98846.72;5094866;28;20052;-46
2023/05/04 05:45:22;;;;;;;12.77;3.40;;;;;;;24.84;32.57;98840.06;5094731;28;20420;-47
2023/05/04 05:47:51;;;;;;;20.30;2.67;;;;;;;25.31;31.94;98843.69;5093453;28;20031;-47
2023/05/04 05:50:17;;;;;;;11.02;2.85;;;;;;;25.55;31.53;98850.03;5093701;28;20058;-47
2023/05/04 05:52:43;;;;;;;15.48;3.08;;;;;;;25.42;31.61;98841.63;5093267;28;20051;-47
2023/05/04 05:55:09;;;;;;;7.82;2.35;;;;;;;25.14;31.77;98843.41;5094503;28;20024;-47
2023/05/04 05:57:34;;;;;;;14.65;2.47;;;;;;;25.25;31.94;98846.75;5093209;28;20030;-47
2023/05/04 06:00:00;;;;;;;12.07;2.35;;;;;;;25.60;31.55;98845.38;5093229;28;20089;-47
2023/05/04 06:02:26;;;;;;;13.35;4.68;;;;;;;26.15;30.95;98846.53;5094703;28;20028;-47
2023/05/04 06:04:51;;;;;;;14.80;3.25;;;;;;;26.85;29.68;98840.00;5094459;28;20713;-47
2023/05/04 06:07:18;;;;;;;10.85;2.45;;;;;;;27.49;28.54;98842.53;5093048;28;20441;-47
2023/05/04 06:09:44;;;;;;;10.05;3.17;;;;;;;28.13;27.76;98842.22;5094287;28;20100;-47
2023/05/04 06:12:13;;;;;;;11.40;2.78;;;;;;;28.65;27.27;98833.44;5093740;28;20033;-47
2023/05/04 06:14:40;;;;;;;21.02;3.00;;;;;;;28.79;26.82;98836.00;5094511;28;20028;-47
2023/05/04 06:17:05;;;;;;;9.73;2.08;;;;;;;28.35;26.97;98838.59;5094098;28;20026;-47
2023/05/04 06:19:36;;;;;;;15.27;2.97;;;;;;;27.59;28.38;98842.28;5093075;28;20032;-47
2023/05/04 06:22:03;;;;;;;10.43;1.95;;;;;;;26.94;29.04;98832.75;5092756;28;20036;-48
2023/05/04 06:24:29;;;;;;;21.13;3.63;;;;;;;26.49;29.90;98838.03;5093999;28;20031;-47
2023/05/04 06:26:55;;;;;;;8.60;2.55;;;;;;;26.58;30.01;98836.28;5093977;28;20020;-47
2023/05/04 06:29:21;;;;;;;9.27;2.63;;;;;;;26.82;29.43;98825.25;5092391;28;20040;-47
2023/05/04 06:31:47;;;;;;;7.55;2.15;;;;;;;26.72;29.35;98832.72;5092779;28;20028;-47
2023/05/04 06:34:15;;;;;;;7.15;2.20;;;;;;;26.86;29.13;98826.22;5093880;28;20519;-47
2023/05/04 06:36:41;;;;;;;15.88;3.28;;;;;;;27.17;29.30;98830.09;5093661;28;20040;-48
2023/05/04 06:39:07;;;;;;;16.30;2.50;;;;;;;27.74;28.50;98832.97;5093790;28;20024;-47
2023/05/04 06:41:33;;;;;;;5.13;1.70;;;;;;;28.04;27.75;98828.69;5092341;28;20510;-48
2023/05/04 06:43:59;;;;;;;10.75;2.50;;;;;;;27.97;27.94;98817.56;5093644;28;20490;-47
2023/05/04 06:46:26;;;;;;;15.85;2.40;;;;;;;28.15;28.04;98831.09;5093526;28;20020;-47
2023/05/04 06:48:53;;;;;;;9.45;1.98;;;;;;;28.40;26.75;98830.38;5093558;28;20031;-47
2023/05/04 06:51:19;;;;;;;8.93;2.30;;;;;;;28.48;27.18;98834.19;5092409;28;20126;-47
2023/05/04 06:53:46;;;;;;;9.50;2.50;;;;;;;28.40;27.18;98835.75;5093479;28;20024;-47
2023/05/04 06:56:12;;;;;;;10.15;2.63;;;;;;;28.33;27.38;98838.13;5091995;28;20119;-47
2023/05/04 06:58:37;;;;;;;12.77;2.35;;;;;;;28.56;26.85;98836.13;5075490;28;20028;-47
2023/05/04 07:01:03;;;;;;;8.30;2.75;;;;;;;28.66;26.75;98826.94;5093565;28;20024;-47
2023/05/04 07:03:29;;;;;;;8.55;1.70;;;;;;;28.68;26.68;98835.53;5093153;28;20020;-47
2023/05/04 07:05:55;;;;;;;9.63;2.25;;;;;;;28.58;26.73;98838.53;5093122;28;20044;-47
2023/05/04 07:08:21;;;;;;;5.53;2.10;;;;;;;28.14;26.99;98849.19;5091879;28;20051;-47
2023/05/04 07:10:46;;;;;;;7.82;2.00;;;;;;;27.91;27.42;98848.50;5091782;28;20450;-47
2023/05/04 07:13:13;;;;;;;8.60;2.08;;;;;;;27.92;27.85;98835.78;5091700;28;20016;-47
2023/05/04 07:15:38;;;;;;;6.95;1.92;;;;;;;28.42;27.21;98828.16;5093021;28;20437;-47
2023/05/04 07:18:04;;;;;;;10.70;2.30;;;;;;;28.72;26.40;98833.78;5091909;28;20035;-47
2023/05/04 07:20:30;;;;;;;9.48;1.70;;;;;;;28.66;26.17;98841.22;5091815;28;20020;-47
2023/05/04 07:22:56;;;;;;;12.30;1.95;;;;;;;28.46;26.42;98842.59;5090803;28;20498;-47
2023/05/04 07:25:23;;;;;;;7.07;1.60;;;;;;;28.71;26.22;98848.38;5092958;28;20383;-47
2023/05/04 07:27:49;;;;;;;13.23;2.85;;;;;;;29.17;26.09;98838.09;5091459;28;20077;-47
2023/05/04 07:30:15;;;;;;;9.95;2.67;;;;;;;29.64;25.53;98846.25;5091251;28;20048;-47
2023/05/04 07:32:41;;;;;;;5.85;1.75;;;;;;;30.10;24.98;98830.34;5074483;28;20127;-47
2023/05/04 07:35:07;;;;;;;20.33;2.95;;;;;;;30.86;25.05;98830.16;5092640;28;20073;-47
2023/05/04 07:37:33;;;;;;;17.67;2.40;;;;;;;30.85;23.95;98839.44;5092542;28;20029;-47
2023/05/04 07:39:59;;;;;;;12.32;2.33;;;;;;;30.69;24.45;98832.22;5092546;28;20049;-47
2023/05/04 07:42:26;;;;;;;8.68;1.73;;;;;;;30.81;23.70;98833.09;5091405;28;20474;-47
2023/05/04 07:44:53;;;;;;;5.43;2.33;;;;;;;30.93;24.15;98835.09;5091445;28;20032;-47
2023/05/04 07:47:19;;;;;;;10.25;1.92;;;;;;;31.36;23.15;98827.66;5091430;28;20042;-47
2023/05/04 07:49:45;;;;;;;8.57;1.70;;;;;;;31.84;22.56;98829.69;5091072;28;20492;-48
2023/05/04 07:52:11;;;;;;;10.73;2.63;;;;;;;32.01;22.38;98817.84;5092304;28;20047;-48
2023/05/04 07:54:37;;;;;;;15.63;2.70;;;;;;;32.27;22.00;98824.84;5091160;28;20024;-47
2023/05/04 07:57:03;;;;;;;7.88;1.83;;;;;;;32.21;22.08;98823.50;5092196;28;20038;-48
2023/05/04 07:59:30;;;;;;;10.32;2.53;;;;;;;32.24;22.40;98829.03;5092216;28;20023;-48
2023/05/04 08:01:56;;;;;;;56.42;6.75;;;;;;;32.46;21.93;98821.53;5090896;28;20042;-47
2023/05/04 08:04:21;;;;;;;68.00;6.05;;;;;;;32.35;21.74;98823.91;5092117;28;20023;-48
2023/05/04 08:06:48;;;;;;;19.80;3.03;;;;;;;32.26;21.92;98828.72;5092138;28;20050;-48
2023/05/04 08:09:18;;;;;;;12.80;2.13;;;;;;;32.42;21.96;98823.38;5090795;28;20028;-48
2023/05/04 08:11:48;;;;;;;26.80;3.53;;;;;;;32.30;22.48;98824.16;5090689;28;20035;-48
2023/05/04 08:14:13;;;;;;;8.00;1.35;;;;;;;32.17;22.45;98820.66;5090887;28;20118;-47
2023/05/04 08:16:39;;;;;;;12.55;3.17;;;;;;;32.08;22.82;98825.44;5091989;28;20036;-47
2023/05/04 08:19:05;;;;;;;8.07;2.03;;;;;;;32.34;22.06;98827.00;5090689;28;20028;-47
2023/05/04 08:21:31;;;;;;;8.65;1.75;;;;;;;32.37;21.94;98832.53;5091916;28;20513;-48
2023/05/04 08:23:57;;;;;;;9.43;2.22;;;;;;;32.61;22.14;98830.94;5092009;28;20023;-47
2023/05/04 08:26:23;;;;;;;8.82;1.60;;;;;;;32.77;21.47;98831.00;5091932;28;20032;-48
2023/05/04 08:28:49;;;;;;;11.25;2.38;;;;;;;33.12;21.09;98835.88;5091728;28;20042;-47
2023/05/04 08:31:17;;;;;;;6.63;1.85;;;;;;;33.43;21.32;98832.44;5091847;28;20024;-47
2023/05/04 08:33:44;;;;;;;6.20;1.45;;;;;;;33.57;20.93;98835.50;5093894;28;20086;-48
2023/05/04 08:36:10;;;;;;;7.35;2.00;;;;;;;34.29;20.30;98831.00;5097235;28;20027;-48
2023/05/04 08:38:36;;;;;;;8.90;1.27;;;;;;;34.81;19.66;98827.91;5097546;28;20028;-47
2023/05/04 08:41:06;;;;;;;10.18;1.73;;;;;;;35.23;18.65;98833.75;5098470;28;20406;-47
2023/05/04 08:43:35;;;;;;;7.63;1.70;;;;;;;35.03;18.93;98825.56;5098481;28;20031;-47
2023/05/04 08:46:02;;;;;;;7.65;2.22;;;;;;;35.18;18.97;98832.13;5098475;28;20089;-47
2023/05/04 08:48:31;;;;;;;7.63;1.25;;;;;;;35.23;18.76;98822.84;5098435;28;20481;-47
2023/05/04 08:50:57;;;;;;;8.48;2.38;;;;;;;35.18;18.72;98830.19;5098309;28;20025;-47
2023/05/04 08:53:24;;;;;;;9.25;1.60;;;;;;;34.99;18.55;98844.63;5098346;28;20027;-48
2023/05/04 08:55:52;;;;;;;13.45;3.30;;;;;;;34.94;19.01;98833.19;5098391;28;20402;-47
2023/05/04 08:58:21;;;;;;;9.60;1.88;;;;;;;35.06;18.12;98830.31;5097330;28;20027;-47
2023/05/04 09:00:47;;;;;;;11.65;1.85;;;;;;;34.34;18.71;98844.38;5098380;28;20027;-47
2023/05/04 09:03:14;;;;;;;11.23;2.03;;;;;;;34.51;19.21;98838.53;5098250;28;20016;-47
2023/05/04 09:05:45;;;;;;;10.15;1.20;;;;;;;35.04;18.16;98826.38;5097234;28;20024;-47
2023/05/04 09:08:10;;;;;;;9.45;1.42;;;;;;;35.63;18.07;98821.59;5097037;28;20020;-47
2023/05/04 09:10:36;;;;;;;13.45;2.55;;;;;;;36.33;19.81;98840.28;5096942;28;20528;-47
2023/05/04 09:13:02;;;;;;;3.38;1.40;;;;;;;36.46;17.55;98831.84;5097161;28;20528;-47
2023/05/04 09:15:28;;;;;;;4.63;1.17;;;;;;;36.56;16.95;98853.06;5097206;28;20073;-48
2023/05/04 09:17:57;;;;;;;11.50;2.53;;;;;;;36.47;16.85;98828.75;5096890;28;20059;-48
2023/05/04 09:20:24;;;;;;;5.70;1.52;;;;;;;35.74;16.12;98833.53;5098164;28;20048;-48
2023/05/04 09:23:08;;;;;;;6.68;1.30;;;;;;;34.45;17.62;98836.41;5098191;28;20021;-47
2023/05/04 09:25:54;;;;;;;13.88;3.25;;;;;;;34.27;17.54;98853.19;5098367;28;20020;-47
2023/05/04 09:28:32;;;;;;;13.05;2.13;;;;;;;33.87;17.65;98826.94;5096297;28;20476;-48
2023/05/04 09:31:01;;;;;;;6.65;1.30;;;;;;;33.25;17.74;98823.78;5096833;28;20081;-47
2023/05/04 09:33:28;;;;;;;9.55;1.63;;;;;;;32.92;18.24;98816.69;5097994;28;20024;-47
2023/05/04 09:35:55;;;;;;;7.65;1.38;;;;;;;33.27;18.24;98824.25;5097927;28;20049;-47
2023/05/04 09:38:25;;;;;;;8.63;1.17;;;;;;;33.22;18.31;98803.53;5097962;28;20077;-47
2023/05/04 09:40:51;;;;;;;11.60;1.63;;;;;;;33.24;18.62;98808.59;5097934;28;20081;-48
2023/05/04 09:43:17;;;;;;;5.57;1.30;;;;;;;33.27;17.67;98820.75;5096867;28;20568;-48
2023/05/04 09:45:45;;;;;;;7.63;1.50;;;;;;;33.12;18.08;98790.44;5094301;28;20366;-47
2023/05/04 09:48:19;;;;;;;15.68;1.83;;;;;;;32.96;18.16;98808.59;5094748;28;20016;-48
2023/05/04 09:50:57;;;;;;;;;;;;;;;32.93;18.45;98796.50;5095119;28;20089;-47
2023/05/04 09:53:28;;;;;;;10.93;1.60;;;;;;;33.29;18.21;98793.97;5094572;28;19915;-47
2023/05/04 09:56:02;;;;;;;21.30;2.75;;;;;;;33.66;17.64;98801.91;5094624;28;20032;-47
2023/05/04 09:58:29;;;;;;;18.20;2.85;;;;;;;33.49;17.99;98806.53;5093229;28;20063;-48
2023/05/04 10:00:56;;;;;;;13.25;2.08;;;;;;;33.26;19.24;98813.69;5093245;28;20024;-47
2023/05/04 10:03:22;;;;;;;11.00;2.00;;;;;;;33.25;18.76;98820.28;5094393;28;20172;-47
2023/05/04 10:05:49;;;;;;;8.82;1.58;;;;;;;33.55;18.46;98816.03;5094468;28;20028;-47
2023/05/04 10:08:16;;;;;;;15.40;2.88;;;;;;;33.19;17.83;98825.19;5093333;28;20114;-47
2023/05/04 10:10:43;;;;;;;23.02;2.30;;;;;;;32.51;18.88;98801.50;5093030;28;20401;-47
2023/05/04 10:13:08;;;;;;;1.70;0.95;;;;;;;32.40;18.56;98812.84;5092982;28;20020;-47
2023/05/04 10:15:39;;;;;;;8.55;1.88;;;;;;;31.80;18.42;98792.72;5094253;28;20485;-47
2023/05/04 10:18:41;;;;;;;24.70;2.03;;;;;;;30.89;19.44;98806.25;5092944;28;20039;-47
2023/05/04 10:21:22;;;;;;;10.75;1.65;;;;;;;30.70;19.81;98822.97;5092797;28;20024;-47
2023/05/04 10:24:01;;;;;;;7.13;1.13;;;;;;;30.73;19.85;98811.50;5094154;28;20028;-47
2023/05/04 10:26:49;;;;;;;9.00;1.10;;;;;;;30.70;20.14;98776.91;5093931;28;20020;-47
2023/05/04 10:29:22;;;;;;;5.82;0.80;;;;;;;31.09;19.96;98794.63;5093616;28;20420;-48
2023/05/04 10:31:48;;;;;;;2.33;0.80;;;;;;;31.35;20.04;98779.97;5093840;28;20154;-47
2023/05/04 10:34:29;;;;;;;5.70;1.10;;;;;;;31.55;18.97;98791.91;5092534;28;20032;-47
2023/05/04 10:36:56;;;;;;;11.70;2.15;;;;;;;31.34;19.73;98773.75;5093830;28;20036;-47
2023/05/04 10:39:29;;;;;;;10.07;1.42;;;;;;;30.94;20.28;98770.84;5093733;28;20073;-47
2023/05/04 10:42:03;;;;;;;7.30;1.10;;;;;;;30.83;20.01;98781.28;5092503;28;20024;-48
2023/05/04 10:44:31;;;;;;;6.15;1.17;;;;;;;31.01;20.43;98773.81;5092395;28;20024;-47
2023/05/04 10:47:05;;;;;;;4.90;0.90;;;;;;;31.38;20.08;98779.31;5093556;28;20107;-47
2023/05/04 10:49:35;;;;;;;22.58;2.17;;;;;;;30.87;20.04;98744.25;5093605;28;20082;-48
2023/05/04 10:52:14;;;;;;;7.13;1.33;;;;;;;30.76;20.36;98738.44;5092418;28;20032;-48
2023/05/04 10:54:41;;;;;;;17.50;1.83;;;;;;;30.45;21.01;98765.97;5060438;28;20028;-48
2023/05/04 10:57:09;;;;;;;6.45;1.15;;;;;;;30.36;20.17;98757.09;5091276;28;20074;-47
2023/05/04 10:59:36;;;;;;;1.58;0.55;;;;;;;29.91;20.56;98769.31;5092076;28;20023;-47
2023/05/04 11:02:03;;;;;;;19.30;1.65;;;;;;;29.33;21.08;98755.34;5093345;28;20024;-47
2023/05/04 11:04:30;;;;;;;12.55;1.17;;;;;;;28.66;22.39;98770.22;5093315;28;20017;-47
2023/05/04 11:06:57;;;;;;;6.85;1.30;;;;;;;28.46;22.94;98753.50;5091926;28;20027;-47
2023/05/04 11:09:25;;;;;;;2.75;0.82;;;;;;;28.89;22.93;98743.81;5093099;28;20051;-47
2023/05/04 11:11:53;;;;;;;17.88;2.30;;;;;;;28.68;22.98;98762.59;5092972;28;20577;-47
2023/05/04 11:14:26;;;;;;;7.40;1.33;;;;;;;28.55;23.45;98744.66;5092018;28;20420;-47
2023/05/04 11:16:53;;;;;;;9.10;1.20;;;;;;;28.81;23.26;98755.44;5091826;28;20026;-47
2023/05/04 11:19:20;;;;;;;5.97;1.50;;;;;;;28.65;23.22;98764.03;5092893;28;20020;-47
2023/05/04 11:21:46;;;;;;;3.65;0.93;;;;;;;28.51;23.39;98724.78;5093192;28;20028;-47
2023/05/04 11:24:12;;;;;;;10.63;1.13;;;;;;;28.23;23.70;98730.47;5092867;28;20028;-47
2023/05/04 11:26:46;;;;;;;1.80;0.93;;;;;;;27.82;24.32;98742.41;5091472;28;20057;-47
2023/05/04 11:29:13;;;;;;;22.67;2.13;;;;;;;27.85;24.22;98758.00;5091327;28;20064;-47
2023/05/04 11:31:38;;;;;;;3.03;0.70;;;;;;;28.36;24.00;98736.84;5091357;28;20038;-47